Time;durP1;ratioP1;P1;durP2;ratioP2;P2;SDS_P1;SDS_P2;PMS_P1;PMS_P2;Temp;Humidity;BMP_temperature;BMP_pressure;BME280_temperature;BME280_humidity;BME280_pressure;Samples;Min_cycle;Max_cycle;Signal;HPM_P1;HPM_P2
2021/07/15 00:00:10;;;;;;;9.57;7.60;;;;;;;29.98;46.06;100982.75;144992;659;6015;-84
2021/07/15 00:02:37;;;;;;;9.82;7.20;;;;;;;29.98;46.10;100980.06;144992;646;6002;-84
2021/07/15 00:05:10;;;;;;;7.90;7.10;;;;;;;30.01;45.80;100973.72;144992;653;6002;-83
2021/07/15 00:07:36;;;;;;;8.05;7.22;;;;;;;30.00;45.55;100972.84;144992;578;6002;-84
2021/07/15 00:10:31;;;;;;;8.75;7.43;;;;;;;30.03;45.81;100969.16;144992;644;6002;-84
2021/07/15 00:12:58;;;;;;;8.55;7.30;;;;;;;30.01;45.37;100969.22;144992;617;6004;-84
2021/07/15 00:15:27;;;;;;;8.63;7.50;;;;;;;30.03;45.32;100970.03;144992;578;6004;-84
2021/07/15 00:17:56;;;;;;;7.93;7.05;;;;;;;30.04;44.78;100976.25;144992;566;6004;-84
2021/07/15 00:20:23;;;;;;;8.48;7.35;;;;;;;30.07;45.25;100976.09;144992;597;6004;-82
2021/07/15 00:22:50;;;;;;;8.77;7.68;;;;;;;30.07;44.37;100969.84;144992;630;6004;-85
2021/07/15 00:25:18;;;;;;;8.50;7.68;;;;;;;30.07;44.48;100976.09;144991;603;6000;-84
2021/07/15 00:27:45;;;;;;;8.98;7.40;;;;;;;29.99;44.53;100968.44;144992;565;6002;-84
2021/07/15 00:30:13;;;;;;;7.72;6.85;;;;;;;30.00;44.86;100966.63;144992;673;6002;-83
2021/07/15 00:32:39;;;;;;;10.60;7.90;;;;;;;29.99;44.46;100970.25;144992;592;6002;-84
2021/07/15 00:35:08;;;;;;;8.35;7.62;;;;;;;29.98;44.25;100966.69;144992;639;6002;-84
2021/07/15 00:37:34;;;;;;;8.90;7.20;;;;;;;30.00;44.69;100964.81;144992;585;6002;-84
2021/07/15 00:40:01;;;;;;;12.35;7.60;;;;;;;29.97;44.05;100969.44;144992;630;6002;-84
2021/07/15 00:42:27;;;;;;;8.15;7.20;;;;;;;29.95;44.76;100966.84;144992;607;6002;-84
2021/07/15 00:44:54;;;;;;;8.05;7.30;;;;;;;29.97;44.32;100964.09;144992;569;6002;-84
2021/07/15 00:47:20;;;;;;;8.60;7.62;;;;;;;29.98;44.80;100966.69;144992;594;6002;-84
2021/07/15 00:49:47;;;;;;;10.27;7.68;;;;;;;30.00;44.86;100966.63;144992;636;6002;-84
2021/07/15 00:52:14;;;;;;;8.77;7.87;;;;;;;30.01;44.15;100977.25;144992;659;6002;-84
2021/07/15 00:54:42;;;;;;;9.00;7.37;;;;;;;30.02;44.47;100976.31;144992;592;6002;-84
2021/07/15 00:57:09;;;;;;;8.93;7.60;;;;;;;30.00;44.27;100970.19;144992;569;6002;-85
2021/07/15 00:59:36;;;;;;;11.95;7.80;;;;;;;30.00;44.28;100975.53;144992;597;6002;-84
2021/07/15 01:02:03;;;;;;;8.85;7.90;;;;;;;30.01;44.69;100971.03;144992;591;6002;-85
2021/07/15 01:04:30;;;;;;;8.68;7.87;;;;;;;30.02;43.98;100970.97;144992;592;6002;-83
2021/07/15 01:06:57;;;;;;;10.90;8.10;;;;;;;30.06;43.77;100976.19;144992;571;6002;-85
2021/07/15 01:09:24;;;;;;;9.95;8.02;;;;;;;30.06;44.45;100978.84;144992;598;6002;-84
2021/07/15 01:12:12;;;;;;;10.52;9.43;;;;;;;30.05;44.14;100974.44;144992;564;6002;-83
2021/07/15 01:15:11;;;;;;;10.82;9.73;;;;;;;30.00;44.11;100969.28;144992;565;6017;-84
2021/07/15 01:18:23;;;;;;;9.60;8.70;;;;;;;29.99;44.21;100965.75;144992;590;6004;-85
2021/07/15 01:21:30;;;;;;;9.85;8.95;;;;;;;29.97;44.14;100964.97;144992;576;6002;-84
2021/07/15 01:24:42;;;;;;;11.52;8.73;;;;;;;29.96;44.19;100973.06;144992;634;6004;-85
2021/07/15 01:27:55;;;;;;;10.75;8.27;;;;;;;29.91;44.11;100965.25;144992;564;6004;-84
2021/07/15 01:30:52;;;;;;;9.32;8.10;;;;;;;29.89;43.99;100971.63;144992;578;6004;-85
2021/07/15 01:33:21;;;;;;;9.05;8.25;;;;;;;29.87;43.85;100965.47;144992;565;6004;-84
2021/07/15 01:36:10;;;;;;;9.95;8.65;;;;;;;29.84;44.08;100970.03;144992;570;6004;-84
2021/07/15 01:38:48;;;;;;;9.07;8.10;;;;;;;29.83;43.98;100967.44;144992;650;6004;-85
2021/07/15 01:41:21;;;;;;;9.52;8.52;;;;;;;29.77;42.92;100963.19;144992;612;6004;-83
2021/07/15 01:43:53;;;;;;;9.00;8.13;;;;;;;29.73;44.11;100958.06;144992;571;6004;-84
2021/07/15 01:46:20;;;;;;;9.40;8.43;;;;;;;29.70;44.29;100952.84;144992;638;6004;-85
2021/07/15 01:48:47;;;;;;;9.38;8.50;;;;;;;29.74;44.01;100951.78;144992;622;6004;-84
2021/07/15 01:51:15;;;;;;;9.07;7.85;;;;;;;29.79;44.24;100955.97;144992;608;6004;-84
2021/07/15 01:53:42;;;;;;;8.95;8.05;;;;;;;29.82;43.63;100957.66;144992;616;6004;-85
2021/07/15 01:56:11;;;;;;;8.88;8.07;;;;;;;29.82;44.08;100952.31;144992;585;6004;-83
2021/07/15 01:58:39;;;;;;;9.15;8.25;;;;;;;29.83;44.04;100954.06;144992;575;6004;-83
2021/07/15 02:01:07;;;;;;;8.63;7.82;;;;;;;29.84;43.58;100953.09;144992;635;6004;-84
2021/07/15 02:03:38;;;;;;;9.23;8.32;;;;;;;29.80;43.53;100952.37;144992;601;6004;-84
2021/07/15 02:06:06;;;;;;;8.65;7.87;;;;;;;29.77;43.69;100946.28;144992;572;6004;-84
2021/07/15 02:08:35;;;;;;;9.20;8.30;;;;;;;29.74;43.41;100946.44;144991;565;6000;-84
2021/07/15 02:11:02;;;;;;;9.45;8.38;;;;;;;29.70;43.19;100940.34;144992;630;6002;-84
2021/07/15 02:13:29;;;;;;;9.60;8.50;;;;;;;29.73;43.70;100950.03;144992;600;6002;-84
2021/07/15 02:15:58;;;;;;;8.63;7.85;;;;;;;29.73;43.51;100944.69;144992;565;6002;-84
2021/07/15 02:18:26;;;;;;;9.10;8.30;;;;;;;29.73;42.83;100942.00;144992;607;6002;-86
2021/07/15 02:20:55;;;;;;;9.95;8.88;;;;;;;29.61;43.12;100943.47;144992;653;6002;-84
2021/07/15 02:23:23;;;;;;;8.18;7.37;;;;;;;29.60;43.21;100937.22;144992;570;6002;-84
2021/07/15 02:25:52;;;;;;;9.85;8.52;;;;;;;29.57;43.37;100942.72;144992;571;6002;-84
2021/07/15 02:28:24;;;;;;;10.75;8.50;;;;;;;29.53;43.67;100941.13;144992;585;6002;-85
2021/07/15 02:31:04;;;;;;;10.73;9.00;;;;;;;29.54;43.04;100940.22;144992;595;6002;-84
2021/07/15 02:33:32;;;;;;;9.23;8.32;;;;;;;29.57;43.05;100948.06;144992;573;6002;-84
2021/07/15 02:36:03;;;;;;;9.95;8.90;;;;;;;29.56;41.72;100942.78;144992;701;6002;-85
2021/07/15 02:38:33;;;;;;;9.10;8.30;;;;;;;29.55;42.65;100941.06;144992;598;6002;-83
2021/07/15 02:41:00;;;;;;;10.93;8.70;;;;;;;29.52;43.09;100951.91;144992;607;6002;-84
2021/07/15 02:43:26;;;;;;;9.85;8.85;;;;;;;29.49;43.18;100952.91;144992;705;6002;-85
2021/07/15 02:45:53;;;;;;;8.93;8.02;;;;;;;29.48;42.97;100960.06;144992;601;6002;-84
2021/07/15 02:48:20;;;;;;;9.43;8.30;;;;;;;29.51;43.26;100961.75;144992;605;6002;-84
2021/07/15 02:50:46;;;;;;;9.75;8.85;;;;;;;29.52;43.42;100951.91;144992;620;6002;-84
2021/07/15 02:53:13;;;;;;;9.70;8.75;;;;;;;29.55;42.85;100957.97;144992;583;6002;-83
2021/07/15 02:55:49;;;;;;;9.85;8.85;;;;;;;29.52;42.62;100949.22;144992;670;6002;-84
2021/07/15 02:58:33;;;;;;;11.25;8.50;;;;;;;29.54;42.80;100955.37;144992;577;6002;-85
2021/07/15 03:01:01;;;;;;;10.35;8.57;;;;;;;29.56;43.38;100958.81;144992;582;6002;-83
2021/07/15 03:03:57;;;;;;;12.52;8.38;;;;;;;29.58;42.81;100956.97;144992;593;6002;-84
2021/07/15 03:06:31;;;;;;;10.43;8.00;;;;;;;29.54;43.02;100964.28;144992;609;6004;-84
2021/07/15 03:09:01;;;;;;;9.15;8.23;;;;;;;29.54;42.82;100966.06;144992;561;6004;-84
2021/07/15 03:11:36;;;;;;;9.70;8.70;;;;;;;29.54;42.58;100966.94;144992;570;6004;-84
2021/07/15 03:14:05;;;;;;;10.05;9.00;;;;;;;29.56;43.01;100965.06;144992;608;6004;-85
2021/07/15 03:16:43;;;;;;;10.77;8.77;;;;;;;29.58;43.18;100963.19;144992;717;6004;-85
2021/07/15 03:19:15;;;;;;;9.88;8.30;;;;;;;29.62;42.78;100967.47;144992;577;6004;-84
2021/07/15 03:21:43;;;;;;;14.30;9.35;;;;;;;29.65;42.27;100958.41;144992;581;6004;-85
2021/07/15 03:24:13;;;;;;;12.05;8.88;;;;;;;29.65;42.54;100959.28;144992;567;6004;-85
2021/07/15 03:26:40;;;;;;;11.18;9.20;;;;;;;29.68;43.15;100963.63;144992;559;6004;-86
2021/07/15 03:29:07;;;;;;;10.85;9.13;;;;;;;29.67;42.87;100960.09;144992;587;6004;-83
2021/07/15 03:31:35;;;;;;;12.82;9.70;;;;;;;29.67;42.79;100962.75;144992;644;6004;-83
2021/07/15 03:34:02;;;;;;;11.95;9.15;;;;;;;29.67;42.45;100965.44;144992;574;6004;-83
2021/07/15 03:36:29;;;;;;;10.98;9.07;;;;;;;29.63;42.76;100971.00;144992;568;6004;-84
2021/07/15 03:38:56;;;;;;;11.90;9.10;;;;;;;29.60;42.91;100963.97;144992;596;6004;-83
2021/07/15 03:41:23;;;;;;;12.15;9.05;;;;;;;29.59;42.90;100962.25;144992;681;6004;-83
2021/07/15 03:43:50;;;;;;;12.10;9.20;;;;;;;29.61;43.15;100971.06;144992;616;6004;-85
2021/07/15 03:46:18;;;;;;;11.30;9.38;;;;;;;29.63;43.09;100969.19;144992;631;6004;-84
2021/07/15 03:48:46;;;;;;;10.88;9.35;;;;;;;29.62;42.87;100964.78;144992;649;6004;-84
2021/07/15 03:51:13;;;;;;;12.32;9.43;;;;;;;29.63;42.53;100961.16;144992;586;6013;-84
2021/07/15 03:53:43;;;;;;;13.62;9.35;;;;;;;29.66;42.66;100965.50;144991;594;6000;-84
2021/07/15 03:56:12;;;;;;;11.63;9.65;;;;;;;29.66;42.87;100977.06;144992;595;6002;-83
2021/07/15 03:58:41;;;;;;;14.13;9.75;;;;;;;29.67;42.65;100975.28;144992;588;6002;-83
2021/07/15 04:01:12;;;;;;;15.05;9.40;;;;;;;29.68;42.69;100977.00;144991;595;6002;-86
2021/07/15 04:03:41;;;;;;;11.05;9.10;;;;;;;29.72;42.69;100975.94;144992;571;6002;-84
2021/07/15 04:06:09;;;;;;;11.77;9.63;;;;;;;29.73;42.75;100971.44;144991;699;6002;-85
2021/07/15 04:08:42;;;;;;;15.57;10.05;;;;;;;29.73;42.24;100988.34;144992;652;6002;-84
2021/07/15 04:11:12;;;;;;;11.02;9.73;;;;;;;29.75;42.44;100974.91;144992;573;6002;-85
2021/07/15 04:13:41;;;;;;;13.32;10.60;;;;;;;29.76;42.93;100980.19;144992;582;6002;-85
2021/07/15 04:16:48;;;;;;;15.98;10.52;;;;;;;29.79;43.14;100976.53;144992;565;6002;-82
2021/07/15 04:19:16;;;;;;;18.12;10.57;;;;;;;29.81;43.20;100977.31;144992;598;6004;-84
2021/07/15 04:21:44;;;;;;;17.00;9.95;;;;;;;29.78;42.65;100975.66;144992;571;6004;-84
2021/07/15 04:24:13;;;;;;;21.50;9.90;;;;;;;29.79;43.27;100981.88;144992;576;6004;-83
2021/07/15 04:26:42;;;;;;;16.10;10.32;;;;;;;29.81;42.93;100986.22;144992;562;6004;-83
2021/07/15 04:29:10;;;;;;;15.65;9.45;;;;;;;29.84;43.09;100988.78;144992;567;6004;-84
2021/07/15 04:32:33;;;;;;;17.67;10.80;;;;;;;29.87;43.05;100985.06;144992;587;6004;-83
2021/07/15 04:35:00;;;;;;;20.52;11.57;;;;;;;29.91;43.09;100988.44;144992;567;6004;-84
2021/07/15 04:37:27;;;;;;;13.68;10.23;;;;;;;29.93;43.14;100987.47;144992;659;6000;-84
2021/07/15 04:39:56;;;;;;;14.82;9.95;;;;;;;29.96;43.24;100992.66;144993;631;6004;-84
2021/07/15 04:42:23;;;;;;;17.23;9.45;;;;;;;29.99;42.69;100991.66;144993;600;6002;-83
2021/07/15 04:44:52;;;;;;;11.40;9.45;;;;;;;30.03;43.17;100995.91;144993;590;6002;-85
2021/07/15 04:47:21;;;;;;;14.43;10.20;;;;;;;30.09;43.72;100989.41;144993;621;6002;-84
2021/07/15 04:49:48;;;;;;;14.38;9.77;;;;;;;30.14;43.45;100992.72;144993;596;6002;-83
2021/07/15 04:52:16;;;;;;;14.85;10.38;;;;;;;30.17;43.01;100990.75;144992;655;6002;-84
2021/07/15 04:54:44;;;;;;;12.02;10.20;;;;;;;30.23;43.12;100996.78;144993;572;6002;-84
2021/07/15 04:57:12;;;;;;;13.55;9.65;;;;;;;30.27;42.96;100995.69;144993;589;6002;-85
2021/07/15 04:59:42;;;;;;;15.50;10.30;;;;;;;30.30;43.55;100992.84;144993;576;6002;-84
2021/07/15 05:02:08;;;;;;;15.05;10.20;;;;;;;30.32;42.76;100991.84;144993;649;6002;-84
2021/07/15 05:04:35;;;;;;;14.52;10.10;;;;;;;30.37;43.40;100995.16;144993;583;6002;-83
2021/07/15 05:07:02;;;;;;;26.98;19.87;;;;;;;30.41;43.04;101000.41;144993;574;6002;-83
2021/07/15 05:09:28;;;;;;;23.40;16.77;;;;;;;30.44;43.26;101010.97;144991;583;6002;-84
2021/07/15 05:11:55;;;;;;;14.43;12.68;;;;;;;30.48;43.40;100999.16;144992;571;6002;-84
2021/07/15 05:14:24;;;;;;;19.20;13.38;;;;;;;30.52;42.93;101009.63;144992;604;6002;-84
2021/07/15 05:16:51;;;;;;;16.87;12.13;;;;;;;30.55;43.22;101009.47;144992;571;6002;-84
2021/07/15 05:19:17;;;;;;;16.23;13.27;;;;;;;30.53;42.85;101006.03;144992;611;6002;-83
2021/07/15 05:21:44;;;;;;;19.95;11.70;;;;;;;30.54;43.38;101004.19;144992;667;6002;-83
2021/07/15 05:24:10;;;;;;;14.87;11.82;;;;;;;30.57;43.70;101009.41;144993;580;6002;-83
2021/07/15 05:26:36;;;;;;;15.23;11.52;;;;;;;30.63;43.31;101021.66;144993;619;6002;-84
2021/07/15 05:29:09;;;;;;;15.73;12.07;;;;;;;30.70;42.91;101012.34;144993;608;6002;-84
2021/07/15 05:31:38;;;;;;;17.98;11.82;;;;;;;30.78;43.47;101015.50;144993;623;6002;-84
2021/07/15 05:34:04;;;;;;;17.20;10.30;;;;;;;30.87;43.64;101008.81;144993;607;6002;-84
2021/07/15 05:36:31;;;;;;;32.25;10.75;;;;;;;30.93;42.94;101013.88;144993;585;6002;-84
2021/07/15 05:38:57;;;;;;;12.05;10.65;;;;;;;30.95;43.17;101011.97;144993;653;6002;-84
2021/07/15 05:41:24;;;;;;;15.80;10.45;;;;;;;30.99;43.03;101008.22;144993;589;6002;-84
2021/07/15 05:43:50;;;;;;;14.90;10.30;;;;;;;31.08;43.31;101020.28;144993;625;6002;-83
2021/07/15 05:46:17;;;;;;;11.30;9.70;;;;;;;31.15;42.77;101015.47;144993;569;6002;-84
2021/07/15 05:48:43;;;;;;;11.65;10.45;;;;;;;31.22;43.45;101012.38;144993;575;6002;-85
2021/07/15 05:51:10;;;;;;;14.38;10.18;;;;;;;31.28;43.53;101014.75;144993;592;6002;-85
2021/07/15 05:53:36;;;;;;;10.60;8.93;;;;;;;31.25;43.14;101025.62;144993;614;6002;-84
2021/07/15 05:56:03;;;;;;;9.23;8.30;;;;;;;31.27;43.45;101020.19;144993;604;6002;-84
2021/07/15 05:58:30;;;;;;;10.52;8.35;;;;;;;31.21;43.64;101016.03;144993;631;6002;-85
2021/07/15 06:00:56;;;;;;;11.10;8.23;;;;;;;31.20;44.70;101016.97;144993;622;6003;-84
2021/07/15 06:03:23;;;;;;;13.20;8.55;;;;;;;31.21;44.30;101013.34;144992;585;6002;-85
2021/07/15 06:05:49;;;;;;;9.00;8.10;;;;;;;31.27;44.23;101013.00;144993;571;6002;-83
2021/07/15 06:08:16;;;;;;;9.82;7.85;;;;;;;31.27;44.40;101012.16;144993;667;6002;-85
2021/07/15 06:10:43;;;;;;;13.62;8.43;;;;;;;31.25;44.30;101009.53;144993;601;6002;-83
2021/07/15 06:13:10;;;;;;;8.70;7.80;;;;;;;31.30;44.35;101014.66;144993;575;6002;-85
2021/07/15 06:15:36;;;;;;;9.48;7.75;;;;;;;31.29;45.03;101007.56;144993;584;6002;-82
2021/07/15 06:18:03;;;;;;;9.13;8.18;;;;;;;31.35;44.07;101007.25;144994;594;5002;-85
2021/07/15 06:20:29;;;;;;;11.73;8.40;;;;;;;31.30;44.76;101009.31;144994;728;5002;-84
2021/07/15 06:22:56;;;;;;;13.02;8.38;;;;;;;31.34;44.32;101005.53;144994;585;5002;-84
2021/07/15 06:25:23;;;;;;;12.37;8.63;;;;;;;31.21;44.91;101004.41;144994;577;5002;-83
2021/07/15 06:27:49;;;;;;;11.90;8.65;;;;;;;31.24;44.70;101001.56;144994;611;5002;-84
2021/07/15 06:30:16;;;;;;;8.80;7.87;;;;;;;31.17;45.39;101005.53;144994;600;5002;-84
2021/07/15 06:32:43;;;;;;;10.90;8.82;;;;;;;31.11;45.72;101004.91;144994;585;5002;-84
2021/07/15 06:35:10;;;;;;;9.40;8.35;;;;;;;31.11;45.63;100998.69;144994;574;5002;-83
2021/07/15 06:37:42;;;;;;;9.13;8.23;;;;;;;31.18;45.33;100996.53;144994;588;5002;-86
2021/07/15 06:40:10;;;;;;;12.05;8.25;;;;;;;31.18;46.09;101001.91;144994;585;5002;-86
2021/07/15 06:42:38;;;;;;;10.65;8.27;;;;;;;31.25;45.26;101000.66;144994;561;5002;-86
2021/07/15 06:45:10;;;;;;;11.40;8.60;;;;;;;31.22;45.64;100993.63;144994;576;5002;-85
2021/07/15 06:47:37;;;;;;;9.15;8.05;;;;;;;31.10;46.75;100996.94;144994;565;5002;-87
2021/07/15 06:50:06;;;;;;;9.25;8.15;;;;;;;31.10;46.04;100997.81;144994;607;5002;-83
2021/07/15 06:52:32;;;;;;;12.40;8.60;;;;;;;31.18;45.75;100996.53;144994;565;5002;-86
2021/07/15 06:55:01;;;;;;;9.55;8.40;;;;;;;31.13;46.57;101006.63;144993;569;5002;-84
2021/07/15 06:57:33;;;;;;;8.93;8.07;;;;;;;31.09;47.23;101000.56;144994;565;5002;-85
2021/07/15 07:00:00;;;;;;;9.63;8.70;;;;;;;30.99;47.56;101005.56;144993;570;5002;-87
2021/07/15 07:02:26;;;;;;;10.23;9.05;;;;;;;30.82;49.18;101000.16;144994;581;5002;-88
2021/07/15 07:04:54;;;;;;;9.52;8.55;;;;;;;30.81;48.49;101003.78;144994;601;5002;-86
2021/07/15 07:07:28;;;;;;;11.57;9.00;;;;;;;30.83;49.05;100996.50;144994;604;5002;-86
2021/07/15 07:09:56;;;;;;;10.57;8.82;;;;;;;30.66;51.42;101006.28;144994;565;5002;-85
2021/07/15 07:12:26;;;;;;;10.18;8.55;;;;;;;30.81;50.12;100996.59;144994;695;5002;-84
2021/07/15 07:14:55;;;;;;;9.57;8.60;;;;;;;30.71;50.37;100990.84;144994;599;5002;-87
2021/07/15 07:17:23;;;;;;;10.38;8.50;;;;;;;30.93;50.73;101004.00;144994;620;5002;-85
2021/07/15 07:19:52;;;;;;;9.38;8.50;;;;;;;30.95;50.52;100998.56;144994;572;5002;-87
2021/07/15 07:22:20;;;;;;;11.32;8.40;;;;;;;30.96;50.62;100997.66;144994;579;5002;-84
2021/07/15 07:24:54;;;;;;;13.43;8.32;;;;;;;30.89;51.52;101004.25;144994;621;5002;-87
2021/07/15 07:27:31;;;;;;;10.65;8.75;;;;;;;30.82;51.37;101005.50;144994;611;5002;-85
2021/07/15 07:30:02;;;;;;;13.02;8.80;;;;;;;30.83;50.90;101005.44;144993;591;5002;-87
2021/07/15 07:32:36;;;;;;;11.25;8.50;;;;;;;30.90;51.38;101005.97;144993;652;5002;-85
2021/07/15 07:35:04;;;;;;;12.48;8.77;;;;;;;30.97;50.79;101004.75;144994;594;5002;-85
2021/07/15 07:37:30;;;;;;;10.90;8.70;;;;;;;31.02;50.91;101005.41;144994;582;5002;-88
2021/07/15 07:40:08;;;;;;;9.23;8.20;;;;;;;31.13;51.05;100998.59;144994;565;5002;-86
2021/07/15 07:42:36;;;;;;;9.15;8.23;;;;;;;31.26;50.39;100992.53;144994;581;5002;-86
2021/07/15 07:45:22;;;;;;;9.13;8.23;;;;;;;31.22;50.74;100990.94;144994;623;5002;-87
2021/07/15 07:48:00;;;;;;;10.85;8.73;;;;;;;31.02;51.48;101004.50;144994;628;5002;-88
2021/07/15 07:50:28;;;;;;;10.07;9.07;;;;;;;31.18;51.13;101002.78;144994;585;5002;-83
2021/07/15 07:52:57;;;;;;;9.57;8.57;;;;;;;31.50;50.26;100988.59;144994;589;5002;-90
2021/07/15 07:55:25;;;;;;;10.57;9.32;;;;;;;31.28;50.97;100993.28;144994;647;5002;-87
2021/07/15 07:57:52;;;;;;;12.90;8.85;;;;;;;31.33;50.74;100990.38;144994;563;5002;-86
2021/07/15 08:00:20;;;;;;;11.07;9.00;;;;;;;31.17;51.33;100989.47;144994;580;5002;-84
2021/07/15 08:02:48;;;;;;;10.02;8.50;;;;;;;31.19;50.80;100993.78;144994;589;5002;-85
2021/07/15 08:05:19;;;;;;;10.60;9.18;;;;;;;30.97;52.34;100994.03;144994;621;5002;-86
2021/07/15 08:07:47;;;;;;;10.25;9.00;;;;;;;30.93;51.88;100995.12;144994;626;5002;-86
2021/07/15 08:10:14;;;;;;;12.05;8.63;;;;;;;31.23;51.31;100992.69;144994;592;5002;-85
2021/07/15 08:12:43;;;;;;;12.07;9.23;;;;;;;31.14;51.69;101000.34;144994;569;5002;-84
2021/07/15 08:15:13;;;;;;;9.70;8.77;;;;;;;31.08;51.13;100997.00;144994;637;5003;-85
2021/07/15 08:17:40;;;;;;;11.18;9.05;;;;;;;31.15;51.17;100991.34;144994;587;5002;-87
2021/07/15 08:20:08;;;;;;;10.63;9.10;;;;;;;31.12;51.20;100992.38;144994;644;5002;-83
2021/07/15 08:22:36;;;;;;;9.93;9.00;;;;;;;31.09;51.65;100993.41;144994;634;5002;-86
2021/07/15 08:25:14;;;;;;;11.55;8.93;;;;;;;31.04;51.94;101003.50;144994;662;5002;-81
2021/07/15 08:27:43;;;;;;;9.70;8.63;;;;;;;31.06;52.41;101003.41;144994;599;5002;-86
2021/07/15 08:30:10;;;;;;;12.35;9.35;;;;;;;31.08;52.02;100994.31;144994;564;5002;-85
2021/07/15 08:32:38;;;;;;;13.55;9.27;;;;;;;31.06;52.19;100996.22;144994;599;5002;-84
2021/07/15 08:35:05;;;;;;;10.00;9.00;;;;;;;31.11;52.67;100994.16;144994;659;5002;-87
2021/07/15 08:37:33;;;;;;;11.15;9.05;;;;;;;30.97;53.36;101002.06;144994;565;5002;-83
2021/07/15 08:40:00;;;;;;;11.50;9.32;;;;;;;31.00;53.54;100990.31;144993;573;5002;-87
2021/07/15 08:42:27;;;;;;;10.65;8.93;;;;;;;30.91;54.55;100999.69;144994;587;5002;-85
2021/07/15 08:44:54;;;;;;;9.80;8.90;;;;;;;30.87;54.73;100998.09;144994;592;5002;-84
2021/07/15 08:47:21;;;;;;;12.55;9.35;;;;;;;30.86;54.63;100997.25;144994;579;5002;-86
2021/07/15 08:49:47;;;;;;;9.98;8.98;;;;;;;31.03;54.90;100993.72;144994;631;5002;-87
2021/07/15 08:52:15;;;;;;;10.43;9.50;;;;;;;30.90;55.41;100993.44;144994;589;5002;-84
2021/07/15 08:55:00;;;;;;;11.43;9.30;;;;;;;30.86;55.91;100988.31;144994;566;5002;-85
2021/07/15 08:57:28;;;;;;;12.25;9.55;;;;;;;30.89;55.33;100986.37;144994;593;5002;-87
2021/07/15 08:59:54;;;;;;;11.93;9.35;;;;;;;30.85;55.59;100989.28;144994;626;5002;-86
2021/07/15 09:02:23;;;;;;;10.75;9.50;;;;;;;30.89;55.65;100996.19;144994;571;5002;-87
2021/07/15 09:04:50;;;;;;;10.65;9.25;;;;;;;30.77;56.21;100986.09;144994;577;5002;-86
2021/07/15 09:07:18;;;;;;;11.98;9.60;;;;;;;30.70;56.31;100990.91;144994;620;5002;-84
2021/07/15 09:09:51;;;;;;;11.85;9.55;;;;;;;30.73;56.04;100994.31;144994;567;5002;-83
2021/07/15 09:12:17;;;;;;;10.63;9.52;;;;;;;30.82;56.03;100984.94;144994;575;5002;-86
2021/07/15 09:14:50;;;;;;;10.45;9.00;;;;;;;30.93;56.18;100993.28;144994;582;5002;-84
2021/07/15 09:17:31;;;;;;;11.55;9.65;;;;;;;30.95;56.50;100990.53;144994;570;5002;-86
2021/07/15 09:19:59;;;;;;;11.63;9.70;;;;;;;30.98;56.31;100984.19;144994;585;5002;-86
2021/07/15 09:22:26;;;;;;;11.80;9.40;;;;;;;30.98;56.13;100982.37;144994;686;5003;-85
2021/07/15 09:24:52;;;;;;;10.95;9.95;;;;;;;31.01;55.68;100989.37;144994;584;5002;-85
2021/07/15 09:27:25;;;;;;;12.45;9.93;;;;;;;31.13;55.38;100979.84;144994;717;5002;-84
2021/07/15 09:30:11;;;;;;;17.30;9.32;;;;;;;31.23;55.24;100978.41;144994;616;5002;-84
2021/07/15 09:33:08;;;;;;;15.75;9.52;;;;;;;31.41;54.98;100969.37;144994;578;5002;-85
2021/07/15 09:35:38;;;;;;;11.20;9.63;;;;;;;31.39;55.25;100962.37;144994;580;5002;-84
2021/07/15 09:38:18;;;;;;;12.10;9.27;;;;;;;31.38;54.86;100972.22;144994;643;5002;-85
2021/07/15 09:40:47;;;;;;;13.62;8.90;;;;;;;31.29;55.27;100975.38;144994;608;5002;-84
2021/07/15 09:43:38;;;;;;;11.90;9.43;;;;;;;31.31;55.59;100965.47;144994;575;5002;-86
2021/07/15 09:46:19;;;;;;;12.27;9.20;;;;;;;31.18;56.30;100970.62;144994;632;5004;-86
2021/07/15 09:48:50;;;;;;;10.38;8.95;;;;;;;31.24;55.67;100966.72;144994;579;5004;-85
2021/07/15 09:51:18;;;;;;;12.65;9.07;;;;;;;31.16;55.90;100960.91;144994;591;5004;-86
2021/07/15 09:53:46;;;;;;;12.57;9.52;;;;;;;31.28;55.76;100965.63;144994;586;5004;-84
2021/07/15 09:56:17;;;;;;;10.00;8.73;;;;;;;31.40;55.35;100962.28;144994;588;5004;-86
2021/07/15 09:58:49;;;;;;;13.93;8.90;;;;;;;31.28;56.28;100960.25;144994;618;5004;-86
2021/07/15 10:01:24;;;;;;;11.18;9.00;;;;;;;31.31;56.09;100965.47;144994;658;5004;-86
2021/07/15 10:03:57;;;;;;;13.10;9.90;;;;;;;31.21;56.79;100959.72;144994;613;5004;-83
2021/07/15 10:06:24;;;;;;;18.00;10.82;;;;;;;31.35;56.56;100955.44;144993;625;5004;-85
2021/07/15 10:08:55;;;;;;;13.02;9.27;;;;;;;31.44;56.43;100961.16;144994;604;5002;-86
2021/07/15 10:11:28;;;;;;;10.90;9.48;;;;;;;31.55;56.79;100951.72;144994;695;5002;-85
2021/07/15 10:14:09;;;;;;;14.00;11.45;;;;;;;31.57;57.39;100952.47;144994;566;5002;-85
2021/07/15 10:16:38;;;;;;;11.68;9.88;;;;;;;31.81;56.01;100939.50;144994;585;5002;-83
2021/07/15 10:19:06;;;;;;;12.25;9.77;;;;;;;31.79;56.46;100944.97;144994;593;5002;-85
2021/07/15 10:21:34;;;;;;;11.57;9.07;;;;;;;31.91;55.66;100950.59;144994;574;5002;-82
2021/07/15 10:24:21;;;;;;;11.93;9.10;;;;;;;31.71;55.84;100947.22;144994;590;5002;-86
2021/07/15 10:26:53;;;;;;;12.35;9.48;;;;;;;31.71;55.51;100932.94;144994;587;5004;-85
2021/07/15 10:29:20;;;;;;;10.95;8.55;;;;;;;31.73;55.86;100922.97;144994;567;5004;-84
2021/07/15 10:31:48;;;;;;;13.38;8.60;;;;;;;31.68;55.51;100922.38;144994;652;5004;-86
2021/07/15 10:34:15;;;;;;;11.12;8.95;;;;;;;31.61;55.93;100928.09;144994;604;5004;-83
2021/07/15 10:36:42;;;;;;;13.15;8.85;;;;;;;31.58;55.75;100922.03;144994;591;5004;-84
2021/07/15 10:39:11;;;;;;;9.60;8.40;;;;;;;31.59;55.92;100916.59;144994;593;5004;-86
2021/07/15 10:41:38;;;;;;;10.77;7.93;;;;;;;31.60;55.16;100910.25;144993;563;5004;-84
2021/07/15 10:44:06;;;;;;;11.18;8.05;;;;;;;31.56;54.79;100913.19;144994;670;5002;-85
2021/07/15 10:46:33;;;;;;;10.68;8.25;;;;;;;31.60;53.80;100896.84;144994;572;5002;-85
2021/07/15 10:49:00;;;;;;;11.18;8.48;;;;;;;31.57;53.96;100898.81;144994;563;5002;-86
2021/07/15 10:51:26;;;;;;;8.75;7.93;;;;;;;31.61;53.73;100892.31;144994;724;4566;-84
2021/07/15 10:53:54;;;;;;;11.85;8.48;;;;;;;31.67;53.36;100901.84;144994;633;4577;-85
2021/07/15 10:56:22;;;;;;;10.95;8.57;;;;;;;31.62;53.08;100899.44;144992;642;6002;-84
2021/07/15 10:58:53;;;;;;;11.57;8.07;;;;;;;31.80;52.62;100898.41;144992;582;6002;-84
2021/07/15 11:01:51;;;;;;;11.73;8.93;;;;;;;31.85;52.87;100897.25;144992;645;6002;-82
2021/07/15 11:04:33;;;;;;;17.35;8.45;;;;;;;31.89;53.32;100896.16;144991;653;6000;-83
2021/07/15 11:07:14;;;;;;;10.10;8.13;;;;;;;31.93;52.76;100900.41;144992;713;6002;-86
2021/07/15 11:09:41;;;;;;;12.77;8.13;;;;;;;31.89;52.76;100893.47;144992;565;6002;-84
2021/07/15 11:12:53;;;;;;;10.05;7.90;;;;;;;31.87;52.90;100904.28;144992;624;6002;-84
2021/07/15 11:15:19;;;;;;;12.18;8.63;;;;;;;32.00;52.82;100896.38;144992;704;6004;-83
2021/07/15 11:17:49;;;;;;;13.05;9.07;;;;;;;31.92;53.49;100890.59;144992;602;6004;-85
2021/07/15 11:20:30;;;;;;;10.80;8.05;;;;;;;31.88;53.23;100889.03;144992;618;6004;-85
2021/07/15 11:23:28;;;;;;;12.57;8.57;;;;;;;31.96;53.14;100882.28;144992;655;6004;-87
2021/07/15 11:25:55;;;;;;;9.55;8.43;;;;;;;32.05;52.98;100893.44;144992;591;6002;-84
2021/07/15 11:28:23;;;;;;;9.02;7.80;;;;;;;32.11;52.18;100885.06;144992;618;6002;-84
2021/07/15 11:30:55;;;;;;;12.43;8.20;;;;;;;32.08;51.50;100880.72;144992;593;6002;-80
2021/07/15 11:33:32;;;;;;;11.65;8.00;;;;;;;32.25;50.83;100885.13;144992;632;6002;-83
2021/07/15 11:36:11;;;;;;;10.35;7.90;;;;;;;32.30;50.72;100879.50;144992;613;6002;-85
2021/07/15 11:38:54;;;;;;;12.98;8.02;;;;;;;32.36;50.76;100889.88;144992;564;6002;-85
2021/07/15 11:41:20;;;;;;;11.07;8.13;;;;;;;32.41;51.10;100879.72;144992;563;6002;-86
2021/07/15 11:43:57;;;;;;;13.05;9.32;;;;;;;32.28;51.37;100886.75;144992;580;6002;-84